createdAt,value
2023-12-10T00:02:28.560Z,6.40
2023-12-10T00:04:56.468Z,6.00
2023-12-10T00:07:24.127Z,4.68
2023-12-10T00:09:51.859Z,4.93
2023-12-10T00:12:19.584Z,5.72
2023-12-10T00:14:50.637Z,6.30
2023-12-10T00:17:18.366Z,4.37
2023-12-10T00:19:47.525Z,5.20
2023-12-10T00:22:15.223Z,5.13
2023-12-10T00:24:43.907Z,5.27
2023-12-10T00:27:12.395Z,5.60
2023-12-10T00:29:40.107Z,5.20
2023-12-10T00:32:08.315Z,6.50
2023-12-10T00:34:36.109Z,5.17
2023-12-10T00:37:05.747Z,5.80
2023-12-10T00:39:33.535Z,5.22
2023-12-10T00:42:01.288Z,5.13
2023-12-10T00:44:28.982Z,5.25
2023-12-10T00:46:56.674Z,5.45
2023-12-10T00:49:24.452Z,4.63
2023-12-10T00:51:52.388Z,4.80
2023-12-10T00:54:21.538Z,5.95
2023-12-10T00:56:49.263Z,5.90
2023-12-10T00:59:17.014Z,4.73
2023-12-10T01:01:44.761Z,5.93
2023-12-10T01:04:13.088Z,6.35
2023-12-10T01:06:41.295Z,4.60
2023-12-10T01:09:09.943Z,5.70
2023-12-10T01:11:39.001Z,5.25
2023-12-10T01:14:07.550Z,6.55
2023-12-10T01:16:35.252Z,6.95
2023-12-10T01:19:02.975Z,5.80
2023-12-10T01:21:31.174Z,5.40
2023-12-10T01:23:58.953Z,7.22
2023-12-10T01:26:26.597Z,5.73
2023-12-10T01:28:55.861Z,5.00
2023-12-10T01:31:23.538Z,5.27
2023-12-10T01:33:51.528Z,5.10
2023-12-10T01:36:23.905Z,5.40
2023-12-10T01:38:51.984Z,6.13
2023-12-10T01:41:20.564Z,6.18
2023-12-10T01:43:48.372Z,6.15
2023-12-10T01:46:18.159Z,4.53
2023-12-10T01:48:48.012Z,6.00
2023-12-10T01:51:16.244Z,5.53
2023-12-10T01:53:44.177Z,6.28
2023-12-10T01:56:13.367Z,4.83
2023-12-10T01:58:41.461Z,4.85
2023-12-10T02:01:09.939Z,6.10
2023-12-10T02:03:39.303Z,6.18
2023-12-10T02:06:08.083Z,4.68
2023-12-10T02:08:35.800Z,5.60
2023-12-10T02:11:03.499Z,7.77
2023-12-10T02:13:31.587Z,5.43
2023-12-10T02:15:59.467Z,5.85
2023-12-10T02:18:27.253Z,6.80
2023-12-10T02:20:56.667Z,4.80
2023-12-10T02:23:34.551Z,5.40
2023-12-10T02:26:03.987Z,3.80
2023-12-10T02:28:32.163Z,5.50
2023-12-10T02:30:59.978Z,6.65
2023-12-10T02:33:27.829Z,4.65
2023-12-10T02:35:56.340Z,4.32
2023-12-10T02:38:24.001Z,4.53
2023-12-10T02:40:51.729Z,5.70
2023-12-10T02:43:21.680Z,5.80
2023-12-10T02:45:49.514Z,6.93
2023-12-10T02:48:22.900Z,4.93
2023-12-10T02:50:50.966Z,6.28
2023-12-10T02:53:18.767Z,4.95
2023-12-10T02:55:46.493Z,5.60
2023-12-10T02:58:14.206Z,4.65
2023-12-10T03:00:43.445Z,5.07
2023-12-10T03:03:11.206Z,3.92
2023-12-10T03:05:39.123Z,5.80
2023-12-10T03:08:06.822Z,5.55
2023-12-10T03:10:34.514Z,4.93
2023-12-10T03:13:02.226Z,4.30
2023-12-10T03:15:29.948Z,5.80
2023-12-10T03:17:59.063Z,5.80
2023-12-10T03:20:26.819Z,5.32
2023-12-10T03:22:54.502Z,5.03
2023-12-10T03:25:25.418Z,4.78
2023-12-10T03:27:54.066Z,4.95
2023-12-10T03:30:22.037Z,4.40
2023-12-10T03:32:49.767Z,4.00
2023-12-10T03:35:18.853Z,4.47
2023-12-10T03:37:46.628Z,5.10
2023-12-10T03:40:14.708Z,4.15
2023-12-10T03:42:42.478Z,3.70
2023-12-10T03:45:10.505Z,4.38
2023-12-10T03:47:38.299Z,4.60
2023-12-10T03:50:07.169Z,3.55
2023-12-10T03:52:36.220Z,3.50
2023-12-10T03:55:03.979Z,3.53
2023-12-10T03:57:31.715Z,4.68
2023-12-10T03:59:59.426Z,4.22
2023-12-10T04:02:26.378Z,5.47
2023-12-10T04:04:54.207Z,3.20
2023-12-10T04:07:22.139Z,5.38
2023-12-10T04:09:51.187Z,3.92
2023-12-10T04:12:18.917Z,4.80
2023-12-10T04:14:48.101Z,3.78
2023-12-10T04:17:15.807Z,4.95
2023-12-10T04:19:43.725Z,4.18
2023-12-10T04:22:11.468Z,4.57
2023-12-10T04:24:39.282Z,3.80
2023-12-10T04:27:08.349Z,4.07
2023-12-10T04:29:36.261Z,4.15
2023-12-10T04:32:04.177Z,4.00
2023-12-10T04:34:31.982Z,3.90
2023-12-10T04:36:59.848Z,3.95
2023-12-10T04:39:27.607Z,4.20
2023-12-10T04:41:55.355Z,4.32
2023-12-10T04:44:24.413Z,4.03
2023-12-10T04:46:52.510Z,5.13
2023-12-10T04:49:20.343Z,4.60
2023-12-10T04:51:48.237Z,3.97
2023-12-10T04:54:15.995Z,3.75
2023-12-10T04:56:43.778Z,5.05
2023-12-10T04:59:11.473Z,5.63
2023-12-10T05:01:40.552Z,4.18
2023-12-10T05:04:09.125Z,4.47
2023-12-10T05:06:37.016Z,5.43
2023-12-10T05:09:04.895Z,3.65
2023-12-10T05:11:32.691Z,4.57
2023-12-10T05:14:00.378Z,4.65
2023-12-10T05:16:28.066Z,4.22
2023-12-10T05:18:58.187Z,4.20
2023-12-10T05:21:26.362Z,5.38
2023-12-10T05:23:54.057Z,4.15
2023-12-10T05:26:21.864Z,5.55
2023-12-10T05:28:49.531Z,4.32
2023-12-10T05:31:17.206Z,4.20
2023-12-10T05:33:45.041Z,4.60
2023-12-10T05:36:14.164Z,4.40
2023-12-10T05:38:41.848Z,4.20
2023-12-10T05:41:09.535Z,4.10
2023-12-10T05:43:37.193Z,4.60
2023-12-10T05:46:05.180Z,4.55
2023-12-10T05:48:34.460Z,3.92
2023-12-10T05:51:04.448Z,4.78
2023-12-10T05:53:33.472Z,4.70
2023-12-10T05:56:01.994Z,3.08
2023-12-10T05:58:30.163Z,4.25
2023-12-10T06:00:57.947Z,4.40
2023-12-10T06:03:26.499Z,3.72
2023-12-10T06:05:54.364Z,4.57
2023-12-10T06:08:22.129Z,3.97
2023-12-10T06:10:51.158Z,4.47
2023-12-10T06:13:19.334Z,3.80
2023-12-10T06:15:47.252Z,4.28
2023-12-10T06:18:15.352Z,3.38
2023-12-10T06:20:43.106Z,4.05
2023-12-10T06:23:10.763Z,4.53
2023-12-10T06:25:38.425Z,4.05
2023-12-10T06:28:07.611Z,4.60
2023-12-10T06:30:35.339Z,4.50
2023-12-10T06:33:03.291Z,4.65
2023-12-10T06:35:31.048Z,3.67
2023-12-10T06:37:58.741Z,3.35
2023-12-10T06:40:26.560Z,4.45
2023-12-10T06:42:54.254Z,4.00
2023-12-10T06:45:23.398Z,4.05
2023-12-10T06:47:51.185Z,4.15
2023-12-10T06:50:18.917Z,4.10
2023-12-10T06:52:46.605Z,3.42
2023-12-10T06:55:14.366Z,3.17
2023-12-10T06:57:42.284Z,4.65
2023-12-10T07:00:11.452Z,3.53
2023-12-10T07:02:40.508Z,3.15
2023-12-10T07:05:08.807Z,3.25
2023-12-10T07:07:36.528Z,3.45
2023-12-10T07:10:04.769Z,3.50
2023-12-10T07:12:32.956Z,4.28
2023-12-10T07:15:01.176Z,3.85
2023-12-10T07:17:28.885Z,3.10
2023-12-10T07:19:58.010Z,3.50
2023-12-10T07:22:28.316Z,3.47
2023-12-10T07:24:56.878Z,3.88
2023-12-10T07:27:24.674Z,3.47
2023-12-10T07:29:53.516Z,4.78
2023-12-10T07:32:21.303Z,3.53
2023-12-10T07:34:49.233Z,4.30
2023-12-10T07:37:18.571Z,3.92
2023-12-10T07:39:47.578Z,3.35
2023-12-10T07:42:15.293Z,3.28
2023-12-10T07:44:42.963Z,3.17
2023-12-10T07:47:13.073Z,3.13
2023-12-10T07:49:41.723Z,3.78
2023-12-10T07:52:09.517Z,3.75
2023-12-10T07:54:39.008Z,3.83
2023-12-10T07:57:07.183Z,4.40
2023-12-10T07:59:34.954Z,4.63
2023-12-10T08:02:02.687Z,3.80
2023-12-10T08:04:30.421Z,3.58
2023-12-10T08:06:58.153Z,3.60
2023-12-10T08:09:25.870Z,4.38
2023-12-10T08:11:54.943Z,3.83
2023-12-10T08:14:26.862Z,3.88
2023-12-10T08:16:54.576Z,4.30
2023-12-10T08:19:22.487Z,3.75
2023-12-10T08:21:50.320Z,3.45
2023-12-10T08:24:18.111Z,3.55
2023-12-10T08:26:45.861Z,3.90
2023-12-10T08:29:15.082Z,4.13
2023-12-10T08:31:43.639Z,4.45
2023-12-10T08:34:11.806Z,3.88
2023-12-10T08:36:41.083Z,3.40
2023-12-10T08:39:09.833Z,3.25
2023-12-10T08:41:37.714Z,3.65
2023-12-10T08:44:05.604Z,3.20
2023-12-10T08:46:34.617Z,3.60
2023-12-10T08:49:02.409Z,4.25
2023-12-10T08:51:30.222Z,4.70
2023-12-10T08:54:00.610Z,4.00
2023-12-10T08:56:28.709Z,3.45
2023-12-10T08:58:56.378Z,2.75
2023-12-10T09:01:24.177Z,4.22
2023-12-10T09:03:53.438Z,4.10
2023-12-10T09:06:21.243Z,3.83
2023-12-10T09:08:48.994Z,3.92
2023-12-10T09:11:16.998Z,5.07
2023-12-10T09:13:44.717Z,4.35
2023-12-10T09:16:12.410Z,3.53
2023-12-10T09:18:40.332Z,4.30
2023-12-10T09:21:09.832Z,3.33
2023-12-10T09:23:37.517Z,3.78
2023-12-10T09:26:05.626Z,4.78
2023-12-10T09:28:33.365Z,3.65
2023-12-10T09:31:01.152Z,3.45
2023-12-10T09:33:28.957Z,3.43
2023-12-10T09:35:56.713Z,3.60
2023-12-10T09:38:25.746Z,4.72
2023-12-10T09:40:53.456Z,3.47
2023-12-10T09:43:21.179Z,3.65
2023-12-10T09:45:48.923Z,5.05
2023-12-10T09:48:18.633Z,3.53
2023-12-10T09:50:46.420Z,4.35
2023-12-10T09:53:14.215Z,4.30
2023-12-10T09:55:43.318Z,4.03
2023-12-10T09:58:11.788Z,4.05
2023-12-10T10:00:42.538Z,3.78
2023-12-10T10:03:12.880Z,3.57
2023-12-10T10:05:40.743Z,3.47
2023-12-10T10:08:08.473Z,4.53
2023-12-10T10:10:36.163Z,3.30
2023-12-10T10:13:07.680Z,3.78
2023-12-10T10:15:35.514Z,3.97
2023-12-10T10:18:03.545Z,3.65
2023-12-10T10:20:31.411Z,3.88
2023-12-10T10:22:59.174Z,3.25
2023-12-10T10:25:26.905Z,3.75
2023-12-10T10:27:54.679Z,4.65
2023-12-10T10:30:24.704Z,4.20
2023-12-10T10:32:53.728Z,4.28
2023-12-10T10:35:21.418Z,4.47
2023-12-10T10:37:50.107Z,3.40
2023-12-10T10:40:17.969Z,4.72
2023-12-10T10:42:47.005Z,4.05
2023-12-10T10:45:14.882Z,3.67
2023-12-10T10:47:43.964Z,3.60
2023-12-10T10:50:22.018Z,3.70
2023-12-10T10:52:54.891Z,3.57
2023-12-10T10:55:23.578Z,5.10
2023-12-10T10:57:51.381Z,3.92
2023-12-10T11:00:35.702Z,4.17
2023-12-10T11:03:06.016Z,3.83
2023-12-10T11:05:34.469Z,4.35
2023-12-10T11:08:04.904Z,3.63
2023-12-10T11:10:32.568Z,4.10
2023-12-10T11:13:01.255Z,4.10
2023-12-10T11:15:30.789Z,4.10
2023-12-10T11:18:03.801Z,4.67
2023-12-10T11:20:34.544Z,4.07
2023-12-10T11:23:04.058Z,5.13
2023-12-10T11:25:32.473Z,4.37
2023-12-10T11:28:01.540Z,3.97
2023-12-10T11:30:29.569Z,4.57
2023-12-10T11:32:57.473Z,4.10
2023-12-10T11:35:25.267Z,4.10
2023-12-10T11:37:54.341Z,5.60
2023-12-10T11:40:22.900Z,6.27
2023-12-10T11:42:50.627Z,4.97
2023-12-10T11:45:18.423Z,4.40
2023-12-10T11:47:47.624Z,4.23
2023-12-10T11:50:16.122Z,3.20
2023-12-10T11:52:43.946Z,3.50
2023-12-10T11:55:13.357Z,4.00
2023-12-10T11:57:44.878Z,4.33
2023-12-10T12:00:14.268Z,6.07
2023-12-10T12:02:43.849Z,4.00
2023-12-10T12:05:14.566Z,3.90
2023-12-10T12:07:44.196Z,4.60
2023-12-10T12:10:14.244Z,4.60
2023-12-10T12:12:44.171Z,3.33
2023-12-10T12:15:12.837Z,4.00
2023-12-10T12:17:42.261Z,4.47
2023-12-10T12:20:17.545Z,4.23
2023-12-10T12:22:48.653Z,3.57
2023-12-10T12:25:19.245Z,3.80
2023-12-10T12:27:47.670Z,3.60
2023-12-10T12:30:17.636Z,4.30
2023-12-10T12:32:45.472Z,6.17
2023-12-10T12:35:13.285Z,4.23
2023-12-10T12:37:40.974Z,5.07
2023-12-10T12:40:09.901Z,3.67
2023-12-10T12:42:39.029Z,5.00
2023-12-10T12:45:08.275Z,4.13
2023-12-10T12:47:36.491Z,4.07
2023-12-10T12:50:04.661Z,4.30
2023-12-10T12:52:32.807Z,4.37
2023-12-10T12:55:01.198Z,4.30
2023-12-10T12:57:29.256Z,5.80
2023-12-10T12:59:58.434Z,4.80
2023-12-10T13:02:26.104Z,4.47
2023-12-10T13:04:53.855Z,4.40
2023-12-10T13:07:21.688Z,5.40
2023-12-10T13:09:49.456Z,6.50
2023-12-10T13:12:17.514Z,5.23
2023-12-10T13:14:46.490Z,4.97
2023-12-10T13:17:15.571Z,4.43
2023-12-10T13:19:43.295Z,4.90
2023-12-10T13:22:11.180Z,4.37
2023-12-10T13:24:39.005Z,4.73
2023-12-10T13:27:06.977Z,5.30
2023-12-10T13:29:35.841Z,5.67
2023-12-10T13:32:03.598Z,4.87
2023-12-10T13:34:32.712Z,6.03
2023-12-10T13:37:00.562Z,7.00
2023-12-10T13:39:28.346Z,5.87
2023-12-10T13:41:56.028Z,7.10
2023-12-10T13:44:23.857Z,7.03
2023-12-10T13:46:51.549Z,6.17
2023-12-10T13:49:19.313Z,5.80
2023-12-10T13:51:48.444Z,5.60
2023-12-10T13:54:16.400Z,5.27
2023-12-10T13:56:45.075Z,7.53
2023-12-10T13:59:14.050Z,5.97
2023-12-10T14:01:41.745Z,5.40
2023-12-10T14:04:09.568Z,6.23
2023-12-10T14:06:37.369Z,6.17
2023-12-10T14:09:07.621Z,5.40
2023-12-10T14:11:41.117Z,5.13
2023-12-10T14:14:14.838Z,5.10
2023-12-10T14:16:44.810Z,6.80
2023-12-10T14:19:12.713Z,5.50
2023-12-10T14:21:40.594Z,6.10
2023-12-10T14:24:09.935Z,5.87
2023-12-10T14:26:37.593Z,5.37
2023-12-10T14:29:05.264Z,6.20
2023-12-10T14:31:33.053Z,5.27
2023-12-10T14:34:01.163Z,6.40
2023-12-10T14:36:28.949Z,6.23
2023-12-10T14:38:56.646Z,5.97
2023-12-10T14:41:25.744Z,6.20
2023-12-10T14:43:53.457Z,6.77
2023-12-10T14:46:21.128Z,5.60
2023-12-10T14:48:48.976Z,5.43
2023-12-10T14:51:16.718Z,6.90
2023-12-10T14:53:44.371Z,5.37
2023-12-10T14:56:12.960Z,4.47
2023-12-10T14:58:42.039Z,5.37
2023-12-10T15:01:09.820Z,4.50
2023-12-10T15:03:37.648Z,5.33
2023-12-10T15:06:05.977Z,5.57
2023-12-10T15:08:35.774Z,6.83
2023-12-10T15:11:03.499Z,5.10
2023-12-10T15:13:31.189Z,5.50
2023-12-10T15:16:00.205Z,5.60
2023-12-10T15:18:28.017Z,4.33
2023-12-10T15:20:55.758Z,5.20
2023-12-10T15:23:23.996Z,5.40
2023-12-10T15:25:51.723Z,5.47
2023-12-10T15:28:19.484Z,6.33
2023-12-10T15:30:47.278Z,6.13
2023-12-10T15:33:16.391Z,5.53
2023-12-10T15:35:44.772Z,4.77
2023-12-10T15:38:12.835Z,5.30
2023-12-10T15:40:40.614Z,5.40
2023-12-10T15:43:08.630Z,5.43
2023-12-10T15:45:36.369Z,4.88
2023-12-10T15:48:04.290Z,4.70
2023-12-10T15:50:35.098Z,3.77
2023-12-10T15:53:02.947Z,5.93
2023-12-10T15:55:30.820Z,4.63
2023-12-10T15:57:58.519Z,4.73
2023-12-10T16:00:26.277Z,4.63
2023-12-10T16:02:53.997Z,5.03
2023-12-10T16:05:21.746Z,4.68
2023-12-10T16:07:52.679Z,4.93
2023-12-10T16:10:21.575Z,5.53
2023-12-10T16:12:49.345Z,4.60
2023-12-10T16:15:18.015Z,4.40
2023-12-10T16:17:46.896Z,5.67
2023-12-10T16:20:14.991Z,4.43
2023-12-10T16:22:42.948Z,5.90
2023-12-10T16:25:13.078Z,5.60
2023-12-10T16:27:41.473Z,6.03
2023-12-10T16:30:10.413Z,5.20
2023-12-10T16:32:38.493Z,4.67
2023-12-10T16:35:08.467Z,5.03
2023-12-10T16:37:36.362Z,5.40
2023-12-10T16:40:05.943Z,5.90
2023-12-10T16:42:35.437Z,6.40
2023-12-10T16:45:03.446Z,6.07
2023-12-10T16:47:32.101Z,4.50
2023-12-10T16:50:00.115Z,4.43
2023-12-10T16:52:28.203Z,3.20
2023-12-10T16:54:55.882Z,3.47
2023-12-10T16:57:23.664Z,3.80
2023-12-10T16:59:53.024Z,5.93
2023-12-10T17:02:20.767Z,3.65
2023-12-10T17:04:48.522Z,4.38
2023-12-10T17:07:16.252Z,4.53
2023-12-10T17:09:43.990Z,3.53
2023-12-10T17:12:11.739Z,4.30
2023-12-10T17:14:39.439Z,4.50
2023-12-10T17:17:08.518Z,3.20
2023-12-10T17:19:36.364Z,3.42
2023-12-10T17:22:04.265Z,3.05
2023-12-10T17:24:32.025Z,3.38
2023-12-10T17:26:59.743Z,3.50
2023-12-10T17:29:27.429Z,3.60
2023-12-10T17:31:55.079Z,2.95
2023-12-10T17:34:24.097Z,2.92
2023-12-10T17:36:51.818Z,3.28
2023-12-10T17:39:19.802Z,3.33
2023-12-10T17:41:47.473Z,3.50
2023-12-10T17:44:17.929Z,3.35
2023-12-10T17:46:45.584Z,3.55
2023-12-10T17:49:13.387Z,3.33
2023-12-10T17:51:42.660Z,3.10
2023-12-10T17:54:11.436Z,3.85
2023-12-10T17:56:39.271Z,3.90
2023-12-10T17:59:07.414Z,3.97
2023-12-10T18:01:35.180Z,3.03
2023-12-10T18:04:03.185Z,2.47
2023-12-10T18:06:30.942Z,3.20
2023-12-10T18:09:00.882Z,3.10
2023-12-10T18:11:28.565Z,3.90
2023-12-10T18:13:56.403Z,3.10
2023-12-10T18:16:25.454Z,2.90
2023-12-10T18:18:53.320Z,3.53
2023-12-10T18:21:21.656Z,3.45
2023-12-10T18:23:49.536Z,3.88
2023-12-10T18:26:18.772Z,5.05
2023-12-10T18:28:46.963Z,3.10
2023-12-10T18:31:15.706Z,3.97
2023-12-10T18:33:43.545Z,4.88
2023-12-10T18:36:11.362Z,3.85
2023-12-10T18:38:39.924Z,3.50
2023-12-10T18:41:07.907Z,5.13
2023-12-10T18:43:36.920Z,3.13
2023-12-10T18:46:05.134Z,3.60
2023-12-10T18:48:33.913Z,4.10
2023-12-10T18:51:02.625Z,3.60
2023-12-10T18:53:30.338Z,3.58
2023-12-10T18:55:58.022Z,4.05
2023-12-10T18:58:25.705Z,4.57
2023-12-10T19:00:59.139Z,4.43
2023-12-10T19:03:27.924Z,3.75
2023-12-10T19:05:55.780Z,3.20
2023-12-10T19:08:23.555Z,4.03
2023-12-10T19:10:53.059Z,2.88
2023-12-10T19:13:20.798Z,3.80
2023-12-10T19:15:50.285Z,3.85
2023-12-10T19:18:20.240Z,3.20
2023-12-10T19:20:47.989Z,2.40
2023-12-10T19:23:15.739Z,3.15
2023-12-10T19:25:43.594Z,3.85
2023-12-10T19:28:11.449Z,3.38
2023-12-10T19:30:39.363Z,3.53
2023-12-10T19:33:07.345Z,3.65
2023-12-10T19:35:36.573Z,3.05
2023-12-10T19:38:04.249Z,3.67
2023-12-10T19:40:31.921Z,3.70
2023-12-10T19:42:59.649Z,3.75
2023-12-10T19:45:27.369Z,3.10
2023-12-10T19:47:55.573Z,3.67
2023-12-10T19:50:23.375Z,2.95
2023-12-10T19:52:52.432Z,2.97
2023-12-10T19:55:22.529Z,2.45
2023-12-10T19:57:50.285Z,2.40
2023-12-10T20:00:18.391Z,2.53
2023-12-10T20:02:46.436Z,3.10
2023-12-10T20:05:14.288Z,2.25
2023-12-10T20:07:42.214Z,2.63
2023-12-10T20:10:11.598Z,2.15
2023-12-10T20:12:39.508Z,2.90
2023-12-10T20:15:10.091Z,2.55
2023-12-10T20:17:40.617Z,1.90
2023-12-10T20:20:09.671Z,1.92
2023-12-10T20:22:37.356Z,2.30
2023-12-10T20:25:08.856Z,1.55
2023-12-10T20:27:40.080Z,1.67
2023-12-10T20:30:08.891Z,1.77
2023-12-10T20:32:39.597Z,1.98
2023-12-10T20:35:07.909Z,1.73
2023-12-10T20:37:35.673Z,1.60
2023-12-10T20:40:02.461Z,1.50
2023-12-10T20:42:30.289Z,1.43
2023-12-10T20:44:59.374Z,1.30
2023-12-10T20:47:27.712Z,2.03
2023-12-10T20:49:55.598Z,2.23
2023-12-10T20:52:23.261Z,1.60
2023-12-10T20:54:52.360Z,1.33
2023-12-10T20:57:20.227Z,1.20
2023-12-10T20:59:47.925Z,1.10
2023-12-10T21:02:16.954Z,1.40
2023-12-10T21:04:45.337Z,1.40
2023-12-10T21:07:13.181Z,1.60
2023-12-10T21:09:42.677Z,1.70
2023-12-10T21:12:10.582Z,1.50
2023-12-10T21:14:38.356Z,1.87
2023-12-10T21:17:10.303Z,1.83
2023-12-10T21:19:40.759Z,1.83
2023-12-10T21:22:08.581Z,1.90
2023-12-10T21:24:36.355Z,1.77
2023-12-10T21:27:04.466Z,2.00
2023-12-10T21:29:34.233Z,1.53
2023-12-10T21:32:02.031Z,1.87
2023-12-10T21:34:29.876Z,2.03
2023-12-10T21:36:59.191Z,1.40
2023-12-10T21:39:26.906Z,1.60
2023-12-10T21:41:54.606Z,1.70
2023-12-10T21:44:22.285Z,1.70
2023-12-10T21:46:50.007Z,1.50
2023-12-10T21:49:18.255Z,1.40
2023-12-10T21:51:46.037Z,1.30
2023-12-10T21:54:15.138Z,2.00
2023-12-10T21:56:42.841Z,1.80
2023-12-10T21:59:10.503Z,1.87
2023-12-10T22:01:38.504Z,1.80
2023-12-10T22:04:06.513Z,1.83
2023-12-10T22:06:34.485Z,2.00
2023-12-10T22:09:02.301Z,2.10
2023-12-10T22:11:31.621Z,1.93
2023-12-10T22:13:59.380Z,2.33
2023-12-10T22:16:27.075Z,2.93
2023-12-10T22:18:55.014Z,2.53
2023-12-10T22:21:23.163Z,2.00
2023-12-10T22:23:50.873Z,2.60
2023-12-10T22:26:18.585Z,2.90
2023-12-10T22:28:47.630Z,2.63
2023-12-10T22:31:15.419Z,2.80
2023-12-10T22:33:45.156Z,2.17
2023-12-10T22:36:13.269Z,2.40
2023-12-10T22:38:41.736Z,3.10
2023-12-10T22:41:10.037Z,2.83
2023-12-10T22:43:37.737Z,2.40
2023-12-10T22:46:07.050Z,2.20
2023-12-10T22:48:35.026Z,2.53
2023-12-10T22:51:02.874Z,2.73
2023-12-10T22:53:30.572Z,3.37
2023-12-10T22:55:59.362Z,2.80
2023-12-10T22:58:27.226Z,2.97
2023-12-10T23:00:55.010Z,2.67
2023-12-10T23:03:24.154Z,3.47
2023-12-10T23:05:51.886Z,3.13
2023-12-10T23:08:19.652Z,2.67
2023-12-10T23:10:47.417Z,4.63
2023-12-10T23:13:15.203Z,2.30
2023-12-10T23:15:42.968Z,2.50
2023-12-10T23:18:11.136Z,2.50
2023-12-10T23:20:40.251Z,2.20
2023-12-10T23:23:08.350Z,3.50
2023-12-10T23:25:36.184Z,3.10
2023-12-10T23:28:04.119Z,3.40
2023-12-10T23:30:38.520Z,2.90
2023-12-10T23:33:12.797Z,3.60
2023-12-10T23:35:41.929Z,3.10
2023-12-10T23:38:09.686Z,2.30
2023-12-10T23:40:37.502Z,3.10
2023-12-10T23:43:05.435Z,3.20
2023-12-10T23:45:33.229Z,2.33
2023-12-10T23:48:01.074Z,2.30
2023-12-10T23:50:28.799Z,3.13
2023-12-10T23:52:57.853Z,2.85
2023-12-10T23:55:25.531Z,3.23
2023-12-10T23:57:53.237Z,5.67
